Time;durP1;ratioP1;P1;durP2;ratioP2;P2;SDS_P1;SDS_P2;PMS_P1;PMS_P2;Temp;Humidity;BMP_temperature;BMP_pressure;BME280_temperature;BME280_humidity;BME280_pressure;Samples;Min_cycle;Max_cycle;Signal;HPM_P1;HPM_P2
2021/12/02 00:02:07;;;;;;;9.55;1.95;;;;;;;;;;6096653;23;20350;-94
2021/12/02 00:04:36;;;;;;;7.95;2.35;;;;;;;;;;6073236;23;20497;-94
2021/12/02 00:07:04;;;;;;;11.40;2.13;;;;;;;;;;6072955;23;20029;-94
2021/12/02 00:09:30;;;;;;;8.68;2.10;;;;;;;;;;6073033;23;20018;-95
2021/12/02 00:11:56;;;;;;;8.95;2.15;;;;;;;;;;6072640;23;20070;-95
2021/12/02 00:14:26;;;;;;;10.32;2.25;;;;;;;;;;6072288;23;20064;-95
2021/12/02 00:22:10;;;;;;;13.05;1.90;;;;;;;;;;6096621;23;20021;-94
2021/12/02 00:24:37;;;;;;;11.35;2.40;;;;;;;;;;6072570;23;20018;-94
2021/12/02 00:27:07;;;;;;;9.00;1.70;;;;;;;;;;6072585;23;20020;-93
2021/12/02 00:29:33;;;;;;;6.32;1.48;;;;;;;;;;6096168;23;20481;-93
2021/12/02 00:32:02;;;;;;;9.23;1.50;;;;;;;;;;6072566;23;20378;-94
2021/12/02 00:34:29;;;;;;;8.98;2.15;;;;;;;;;;6072858;23;20021;-93
2021/12/02 00:36:56;;;;;;;9.63;1.73;;;;;;;;;;6096260;23;20022;-93
2021/12/02 00:39:22;;;;;;;10.68;1.67;;;;;;;;;;6072656;23;20025;-94
2021/12/02 00:41:49;;;;;;;9.05;1.90;;;;;;;;;;6072122;23;20018;-94
2021/12/02 00:44:16;;;;;;;10.52;2.08;;;;;;;;;;6072188;23;20025;-95
2021/12/02 00:46:43;;;;;;;8.05;1.40;;;;;;;;;;6072308;23;20550;-93
2021/12/02 00:49:11;;;;;;;7.78;2.08;;;;;;;;;;6072374;23;20026;-93
2021/12/02 00:51:38;;;;;;;7.35;2.00;;;;;;;;;;6072190;23;20017;-94
2021/12/02 00:54:06;;;;;;;6.13;1.60;;;;;;;;;;6072190;23;20021;-94
2021/12/02 00:56:32;;;;;;;3.88;1.38;;;;;;;;;;6072066;23;20460;-93
2021/12/02 00:58:58;;;;;;;8.38;1.38;;;;;;;;;;6072206;23;20014;-94
2021/12/02 01:01:26;;;;;;;7.32;1.70;;;;;;;;;;6072184;23;20220;-93
2021/12/02 01:03:57;;;;;;;8.32;1.55;;;;;;;;;;6072058;23;20208;-93
2021/12/02 01:06:23;;;;;;;6.63;1.30;;;;;;;;;;6072068;23;20024;-93
2021/12/02 01:08:49;;;;;;;7.20;1.38;;;;;;;;;;6072059;23;20020;-93
2021/12/02 01:11:17;;;;;;;6.05;1.40;;;;;;;;;;6072155;23;20418;-94
2021/12/02 01:13:43;;;;;;;5.47;1.30;;;;;;;;;;6095925;23;20053;-93
2021/12/02 01:16:09;;;;;;;7.25;1.50;;;;;;;;;;6096200;23;20014;-93
2021/12/02 01:18:35;;;;;;;4.93;1.25;;;;;;;;;;6096040;23;20458;-93
2021/12/02 01:21:02;;;;;;;5.40;1.42;;;;;;;;;;6072041;23;20108;-94
2021/12/02 01:23:29;;;;;;;13.63;1.60;;;;;;;;;;6071938;23;20029;-93
2021/12/02 01:25:58;;;;;;;3.85;1.17;;;;;;;;;;6071817;23;20018;-93
2021/12/02 01:28:25;;;;;;;4.63;1.10;;;;;;;;;;6072290;23;20477;-94
2021/12/02 01:30:52;;;;;;;5.03;1.35;;;;;;;;;;6071927;23;20022;-93
2021/12/02 01:33:19;;;;;;;5.72;1.30;;;;;;;;;;6072092;23;20018;-93
2021/12/02 01:35:48;;;;;;;2.58;1.20;;;;;;;;;;6071876;23;20102;-93
2021/12/02 01:38:15;;;;;;;3.95;1.35;;;;;;;;;;6095973;23;20029;-93
2021/12/02 01:40:41;;;;;;;3.92;1.30;;;;;;;;;;6071560;23;20024;-92
2021/12/02 01:43:07;;;;;;;8.20;1.45;;;;;;;;;;6071841;23;20018;-92
2021/12/02 01:45:36;;;;;;;6.75;1.52;;;;;;;;;;6072535;23;20014;-93
2021/12/02 01:48:03;;;;;;;4.57;1.40;;;;;;;;;;6071856;23;20030;-94
2021/12/02 01:50:29;;;;;;;8.20;1.40;;;;;;;;;;6072220;23;20018;-94
2021/12/02 01:52:57;;;;;;;3.85;1.33;;;;;;;;;;6071765;23;20013;-93
2021/12/02 01:55:24;;;;;;;5.68;1.10;;;;;;;;;;6071892;23;20022;-94
2021/12/02 01:57:58;;;;;;;4.60;1.30;;;;;;;;;;6072283;23;20014;-95
2021/12/02 02:00:26;;;;;;;6.82;1.38;;;;;;;;;;6071906;23;20327;-93
2021/12/02 02:02:52;;;;;;;2.13;1.27;;;;;;;;;;6071436;23;20026;-94
2021/12/02 02:05:18;;;;;;;5.65;1.40;;;;;;;;;;6072766;23;20018;-94
2021/12/02 02:08:03;;;;;;;7.78;2.20;;;;;;;;;;6095594;23;20025;-95
2021/12/02 02:10:31;;;;;;;3.80;1.17;;;;;;;;;;6071525;23;20088;-94
2021/12/02 02:12:58;;;;;;;6.15;1.58;;;;;;;;;;6071962;23;20018;-95
2021/12/02 02:15:25;;;;;;;5.63;1.38;;;;;;;;;;6071981;23;20096;-94
2021/12/02 02:18:02;;;;;;;5.10;1.23;;;;;;;;;;6096095;23;20018;-94
2021/12/02 02:21:02;;;;;;;3.95;1.38;;;;;;;;;;6072096;23;20018;-96
2021/12/02 02:23:29;;;;;;;3.97;1.30;;;;;;;;;;6071515;23;20029;-96
2021/12/02 02:25:55;;;;;;;3.70;0.98;;;;;;;;;;6071811;23;20101;-94
2021/12/02 02:28:21;;;;;;;6.15;1.45;;;;;;;;;;6071919;23;20110;-96
2021/12/02 02:30:47;;;;;;;1.38;1.10;;;;;;;;;;6095347;23;20014;-95
2021/12/02 02:33:15;;;;;;;5.55;1.23;;;;;;;;;;6071710;23;20014;-95
2021/12/02 02:35:43;;;;;;;3.10;1.10;;;;;;;;;;6071798;23;20092;-95
2021/12/02 02:38:09;;;;;;;3.80;1.08;;;;;;;;;;6096612;23;20029;-96
2021/12/02 02:40:38;;;;;;;2.85;1.40;;;;;;;;;;6074263;23;20040;-95
2021/12/02 02:43:08;;;;;;;5.13;1.10;;;;;;;;;;6073156;23;20478;-95
2021/12/02 02:45:34;;;;;;;3.10;1.00;;;;;;;;;;6074124;23;20018;-95
2021/12/02 02:48:01;;;;;;;4.07;1.20;;;;;;;;;;6073184;23;20053;-95
2021/12/02 02:50:27;;;;;;;3.83;1.20;;;;;;;;;;6074071;23;20120;-95
2021/12/02 02:52:57;;;;;;;5.78;1.35;;;;;;;;;;6073045;23;20093;-94
2021/12/02 02:55:25;;;;;;;6.05;1.13;;;;;;;;;;6097999;23;20472;-95
2021/12/02 02:58:03;;;;;;;6.22;1.35;;;;;;;;;;6073555;23;20021;-95
2021/12/02 03:00:43;;;;;;;6.63;1.17;;;;;;;;;;6073936;23;20042;-95
2021/12/02 03:05:52;;;;;;;1.92;0.90;;;;;;;;;;6098151;23;20521;-94
2021/12/02 03:08:21;;;;;;;4.20;1.30;;;;;;;;;;6073109;23;20628;-95
2021/12/02 03:10:52;;;;;;;3.05;1.10;;;;;;;;;;6097485;23;20343;-95
2021/12/02 03:18:30;;;;;;;5.30;1.30;;;;;;;;;;6097906;23;20026;-94
2021/12/02 03:20:56;;;;;;;2.38;1.20;;;;;;;;;;6073402;23;20025;-95
2021/12/02 03:23:22;;;;;;;5.05;1.10;;;;;;;;;;6073487;23;20022;-95
2021/12/02 03:25:48;;;;;;;5.28;1.52;;;;;;;;;;6097623;23;20049;-96
2021/12/02 03:28:14;;;;;;;2.47;0.90;;;;;;;;;;6073773;23;20478;-96
2021/12/02 03:30:40;;;;;;;9.68;1.65;;;;;;;;;;6073979;23;20385;-96
2021/12/02 03:33:06;;;;;;;2.22;1.15;;;;;;;;;;6073601;23;20049;-96
2021/12/02 03:35:32;;;;;;;4.03;1.23;;;;;;;;;;6073516;23;20022;-96
2021/12/02 03:37:58;;;;;;;7.18;1.30;;;;;;;;;;6072717;23;20021;-95
2021/12/02 03:40:24;;;;;;;3.63;1.42;;;;;;;;;;6073392;23;20014;-96
2021/12/02 03:42:52;;;;;;;2.95;1.40;;;;;;;;;;6072319;23;20025;-96
2021/12/02 03:45:18;;;;;;;2.25;1.27;;;;;;;;;;6073434;23;20410;-96
2021/12/02 03:47:44;;;;;;;2.30;1.02;;;;;;;;;;6073064;23;20060;-96
2021/12/02 03:50:10;;;;;;;3.85;1.33;;;;;;;;;;6072730;23;20104;-96
2021/12/02 03:52:37;;;;;;;5.55;1.50;;;;;;;;;;6072692;23;20022;-96
2021/12/02 03:55:03;;;;;;;2.25;1.30;;;;;;;;;;6072809;23;20014;-95
2021/12/02 03:57:31;;;;;;;2.25;1.10;;;;;;;;;;6072666;23;20022;-96
2021/12/02 03:59:57;;;;;;;6.95;1.67;;;;;;;;;;6072710;23;20025;-95
2021/12/02 04:02:23;;;;;;;3.72;1.30;;;;;;;;;;6073012;23;20021;-96
2021/12/02 04:04:49;;;;;;;7.20;1.30;;;;;;;;;;6073511;23;20014;-96
2021/12/02 04:07:18;;;;;;;5.32;1.30;;;;;;;;;;6072809;23;20014;-96
2021/12/02 04:09:46;;;;;;;3.58;1.38;;;;;;;;;;6073234;23;20354;-94
2021/12/02 04:17:29;;;;;;;5.10;1.20;;;;;;;;;;6122051;23;20018;-95
2021/12/02 04:19:55;;;;;;;2.15;1.40;;;;;;;;;;6072428;23;20101;-96
2021/12/02 04:22:21;;;;;;;1.90;1.02;;;;;;;;;;6073084;23;20018;-94
2021/12/02 04:24:47;;;;;;;7.65;1.50;;;;;;;;;;6072782;23;20029;-96
2021/12/02 04:27:13;;;;;;;2.30;1.35;;;;;;;;;;6073096;23;20343;-95
2021/12/02 04:29:39;;;;;;;1.55;1.10;;;;;;;;;;6072690;23;20018;-96
2021/12/02 04:32:05;;;;;;;5.13;1.15;;;;;;;;;;6072649;23;20478;-96
2021/12/02 04:34:31;;;;;;;3.55;1.10;;;;;;;;;;6072395;23;20104;-95
2021/12/02 04:36:57;;;;;;;8.07;1.30;;;;;;;;;;6072844;23;20049;-96
2021/12/02 04:39:23;;;;;;;2.63;1.30;;;;;;;;;;6072759;23;20028;-95
2021/12/02 04:41:49;;;;;;;3.25;1.10;;;;;;;;;;6072847;23;20391;-95
2021/12/02 04:44:18;;;;;;;1.98;1.10;;;;;;;;;;6072463;23;20018;-95
2021/12/02 04:46:45;;;;;;;1.98;1.20;;;;;;;;;;6072386;23;20018;-95
2021/12/02 04:49:11;;;;;;;2.88;1.30;;;;;;;;;;6072156;23;20025;-95
2021/12/02 04:51:37;;;;;;;3.15;1.50;;;;;;;;;;6072941;23;20025;-95
2021/12/02 04:54:03;;;;;;;5.78;1.27;;;;;;;;;;6072734;23;20026;-95
2021/12/02 04:56:29;;;;;;;1.95;1.10;;;;;;;;;;6072721;23;20018;-95
2021/12/02 04:58:55;;;;;;;3.30;1.40;;;;;;;;;;6072242;23;20025;-95
2021/12/02 05:01:21;;;;;;;4.45;1.65;;;;;;;;;;6072045;23;20060;-95
2021/12/02 05:03:47;;;;;;;4.20;1.40;;;;;;;;;;6071541;23;20466;-95
2021/12/02 05:06:13;;;;;;;3.50;1.30;;;;;;;;;;6072554;23;20022;-95
2021/12/02 05:08:39;;;;;;;3.45;1.35;;;;;;;;;;6072708;23;20022;-95
2021/12/02 05:11:05;;;;;;;3.55;1.38;;;;;;;;;;6072581;23;20033;-95
2021/12/02 05:13:31;;;;;;;2.40;1.27;;;;;;;;;;6072697;23;20459;-94
2021/12/02 05:15:57;;;;;;;4.72;1.30;;;;;;;;;;6072727;23;20046;-95
2021/12/02 05:18:23;;;;;;;4.68;1.77;;;;;;;;;;6072152;23;20060;-96
2021/12/02 05:20:49;;;;;;;2.95;1.20;;;;;;;;;;6072666;23;20018;-96
2021/12/02 05:23:15;;;;;;;3.15;1.10;;;;;;;;;;6072738;23;20462;-95
2021/12/02 05:25:44;;;;;;;2.35;1.00;;;;;;;;;;6072466;23;20014;-94
2021/12/02 05:28:11;;;;;;;3.40;1.40;;;;;;;;;;6072287;23;20960;-95
2021/12/02 05:30:37;;;;;;;5.07;1.20;;;;;;;;;;6072663;23;20040;-95
2021/12/02 05:33:02;;;;;;;2.60;1.00;;;;;;;;;;6072126;23;20014;-96
2021/12/02 05:35:29;;;;;;;1.23;1.05;;;;;;;;;;6072783;23;20028;-94
2021/12/02 05:37:54;;;;;;;4.20;1.33;;;;;;;;;;6071965;23;20014;-95
2021/12/02 05:40:21;;;;;;;5.15;0.90;;;;;;;;;;6072584;23;20358;-94
2021/12/02 05:42:47;;;;;;;4.22;1.42;;;;;;;;;;6072030;23;20022;-95
2021/12/02 05:45:13;;;;;;;3.17;1.00;;;;;;;;;;6072638;23;20098;-95
2021/12/02 05:47:39;;;;;;;3.88;1.20;;;;;;;;;;6071794;23;20045;-96
2021/12/02 05:50:05;;;;;;;3.58;1.17;;;;;;;;;;6072181;23;20034;-95
2021/12/02 05:52:31;;;;;;;6.78;1.30;;;;;;;;;;6071929;23;20104;-95
2021/12/02 05:54:58;;;;;;;3.20;1.33;;;;;;;;;;6071895;23;20014;-95
2021/12/02 05:57:24;;;;;;;4.22;1.17;;;;;;;;;;6096237;23;20018;-96
2021/12/02 05:59:50;;;;;;;2.40;1.45;;;;;;;;;;6071707;23;20320;-96
2021/12/02 06:02:16;;;;;;;2.78;1.10;;;;;;;;;;6071491;23;20029;-94
2021/12/02 06:04:44;;;;;;;5.15;1.10;;;;;;;;;;6071978;23;20021;-95
2021/12/02 06:07:10;;;;;;;2.92;1.20;;;;;;;;;;6071290;23;20018;-95
2021/12/02 06:09:36;;;;;;;1.63;0.90;;;;;;;;;;6070702;23;20081;-95
2021/12/02 06:12:02;;;;;;;4.50;1.23;;;;;;;;;;6070459;23;20029;-96
2021/12/02 06:14:28;;;;;;;2.05;1.30;;;;;;;;;;6071126;23;20029;-96
2021/12/02 06:16:54;;;;;;;2.28;1.10;;;;;;;;;;6071698;23;20050;-96
2021/12/02 06:19:20;;;;;;;1.73;1.30;;;;;;;;;;6072569;23;20347;-96
2021/12/02 06:21:47;;;;;;;2.10;1.27;;;;;;;;;;6071354;23;20018;-96
2021/12/02 06:24:14;;;;;;;7.35;1.30;;;;;;;;;;6072415;23;20025;-96
2021/12/02 06:26:40;;;;;;;4.57;1.45;;;;;;;;;;6072507;23;20328;-96
2021/12/02 06:29:06;;;;;;;8.57;2.35;;;;;;;;;;6073101;23;20025;-96
2021/12/02 06:31:32;;;;;;;5.22;1.20;;;;;;;;;;6073110;23;20018;-96
2021/12/02 06:33:58;;;;;;;3.63;1.15;;;;;;;;;;6073482;23;20034;-96
2021/12/02 06:36:24;;;;;;;5.43;1.77;;;;;;;;;;6073633;23;20117;-95
2021/12/02 06:38:50;;;;;;;2.03;1.52;;;;;;;;;;6076157;23;20461;-96
2021/12/02 06:41:18;;;;;;;2.50;1.88;;;;;;;;;;6075688;23;20018;-96
2021/12/02 06:43:44;;;;;;;6.60;2.22;;;;;;;;;;6071495;23;20018;-96
2021/12/02 06:46:10;;;;;;;4.57;1.90;;;;;;;;;;6071272;23;20014;-95
2021/12/02 06:48:36;;;;;;;5.47;2.22;;;;;;;;;;6071386;23;20022;-96
2021/12/02 06:51:02;;;;;;;4.50;2.30;;;;;;;;;;6073077;23;20053;-95
2021/12/02 06:53:28;;;;;;;4.32;2.00;;;;;;;;;;6076848;23;20049;-96
2021/12/02 06:55:54;;;;;;;4.13;1.90;;;;;;;;;;6068458;23;20076;-95
2021/12/02 06:58:20;;;;;;;6.20;1.92;;;;;;;;;;6069419;23;20018;-94
2021/12/02 07:00:46;;;;;;;6.03;1.90;;;;;;;;;;6070270;23;20263;-95
2021/12/02 07:03:12;;;;;;;4.22;2.05;;;;;;;;;;6070682;23;20026;-96
2021/12/02 07:05:38;;;;;;;5.82;3.00;;;;;;;;;;6070942;23;20033;-95
2021/12/02 07:08:05;;;;;;;6.00;2.60;;;;;;;;;;6070071;23;20013;-96
2021/12/02 07:10:32;;;;;;;4.47;3.15;;;;;;;;;;6071267;23;20037;-95
2021/12/02 07:12:59;;;;;;;5.95;2.45;;;;;;;;;;6069508;23;20025;-94
2021/12/02 07:15:31;;;;;;;3.65;3.15;;;;;;;;;;6071459;23;20055;-96
2021/12/02 07:17:59;;;;;;;4.00;1.73;;;;;;;;;;6071034;23;20331;-96
2021/12/02 07:20:26;;;;;;;4.68;2.15;;;;;;;;;;6071845;23;20029;-95
2021/12/02 07:22:52;;;;;;;8.60;2.17;;;;;;;;;;6070709;23;20410;-94
2021/12/02 07:25:18;;;;;;;111.70;37.72;;;;;;;;;;6073687;23;20105;-94
2021/12/02 07:27:44;;;;;;;433.45;175.38;;;;;;;;;;6072661;23;20018;-95
2021/12/02 07:30:10;;;;;;;31.90;13.73;;;;;;;;;;6073172;23;20463;-94
2021/12/02 07:32:39;;;;;;;32.72;13.23;;;;;;;;;;6072978;23;20105;-93
2021/12/02 07:35:16;;;;;;;54.95;22.20;;;;;;;;;;6073312;23;20096;-94
2021/12/02 07:37:46;;;;;;;21.75;9.00;;;;;;;;;;6072312;23;20022;-94
2021/12/02 07:40:13;;;;;;;14.75;5.55;;;;;;;;;;6073616;23;20022;-95
2021/12/02 07:42:39;;;;;;;25.80;10.43;;;;;;;;;;6072765;23;20320;-92
2021/12/02 07:45:07;;;;;;;34.33;13.32;;;;;;;;;;6073129;23;20028;-95
2021/12/02 07:47:34;;;;;;;6.43;3.28;;;;;;;;;;6073902;23;20065;-93
2021/12/02 07:50:00;;;;;;;20.27;8.82;;;;;;;;;;6073380;23;20101;-93
2021/12/02 07:52:26;;;;;;;10.88;5.13;;;;;;;;;;6072651;23;20045;-94
2021/12/02 07:54:55;;;;;;;11.25;4.57;;;;;;;;;;6072301;23;20065;-94
2021/12/02 07:57:21;;;;;;;16.55;8.32;;;;;;;;;;6072348;23;20018;-92
2021/12/02 07:59:51;;;;;;;14.93;6.13;;;;;;;;;;6070806;23;20072;-90
2021/12/02 08:02:17;;;;;;;9.82;4.63;;;;;;;;;;6073309;23;20029;-95
2021/12/02 08:04:44;;;;;;;13.38;6.38;;;;;;;;;;6075250;23;20018;-96
2021/12/02 08:07:10;;;;;;;8.90;4.93;;;;;;;;;;6089153;23;20018;-96
2021/12/02 08:09:36;;;;;;;12.73;5.75;;;;;;;;;;6081546;23;20022;-95
2021/12/02 08:12:03;;;;;;;6.95;4.63;;;;;;;;;;6072453;23;20030;-94
2021/12/02 08:14:29;;;;;;;10.88;6.50;;;;;;;;;;6073247;23;20028;-94
2021/12/02 08:16:55;;;;;;;30.05;27.08;;;;;;;;;;6072868;23;20261;-94
2021/12/02 08:19:21;;;;;;;6.20;4.07;;;;;;;;;;6073260;23;20029;-93
2021/12/02 08:21:48;;;;;;;25.52;22.75;;;;;;;;;;6072605;23;20018;-95
2021/12/02 08:24:14;;;;;;;8.60;5.57;;;;;;;;;;6073208;23;20030;-94
2021/12/02 08:26:43;;;;;;;16.60;12.63;;;;;;;;;;6072528;23;20018;-96
2021/12/02 08:29:09;;;;;;;15.30;12.90;;;;;;;;;;6074160;23;20045;-93
2021/12/02 08:31:35;;;;;;;22.17;19.10;;;;;;;;;;6072693;23;20505;-94
2021/12/02 08:34:01;;;;;;;29.35;25.00;;;;;;;;;;6073453;23;20053;-92
2021/12/02 08:36:37;;;;;;;56.45;50.33;;;;;;;;;;6071628;23;20018;-91
2021/12/02 08:39:06;;;;;;;146.70;127.28;;;;;;;;;;6072622;23;20026;-91
2021/12/02 08:41:32;;;;;;;68.93;57.67;;;;;;;;;;6071784;23;20097;-93
2021/12/02 08:43:58;;;;;;;260.85;118.43;;;;;;;;;;6072189;23;20022;-95
2021/12/02 08:46:30;;;;;;;25.60;16.90;;;;;;;;;;6064064;23;20379;-95
2021/12/02 08:48:56;;;;;;;15.95;10.38;;;;;;;;;;6044714;23;20105;-93
2021/12/02 08:51:24;;;;;;;10.00;8.13;;;;;;;;;;6043428;23;20050;-93
2021/12/02 08:53:50;;;;;;;16.95;14.68;;;;;;;;;;6043190;23;20050;-95
2021/12/02 08:56:16;;;;;;;27.25;21.73;;;;;;;;;;6042784;23;20042;-94
2021/12/02 08:58:42;;;;;;;14.38;12.23;;;;;;;;;;6067798;23;20458;-95
2021/12/02 09:01:07;;;;;;;9.50;8.15;;;;;;;;;;6043529;23;20022;-96
2021/12/02 09:03:36;;;;;;;8.27;6.78;;;;;;;;;;6066889;23;20050;-94
2021/12/02 09:06:02;;;;;;;9.55;7.88;;;;;;;;;;6043104;23;20073;-93
2021/12/02 09:08:28;;;;;;;10.30;7.47;;;;;;;;;;6067211;23;20344;-90
2021/12/02 09:10:56;;;;;;;10.27;5.72;;;;;;;;;;6066618;23;20018;-92
2021/12/02 09:13:23;;;;;;;7.63;5.57;;;;;;;;;;6043460;23;20061;-94
2021/12/02 09:15:49;;;;;;;8.48;4.35;;;;;;;;;;6042555;23;20022;-92
2021/12/02 09:18:15;;;;;;;7.47;4.78;;;;;;;;;;6043268;23;20077;-94
2021/12/02 09:20:42;;;;;;;9.32;6.00;;;;;;;;;;6043263;23;20029;-94
2021/12/02 09:23:08;;;;;;;6.55;5.63;;;;;;;;;;6042387;23;20022;-93
2021/12/02 09:25:34;;;;;;;7.82;4.40;;;;;;;;;;6042391;23;20355;-92
2021/12/02 09:28:01;;;;;;;7.35;3.78;;;;;;;;;;6041578;23;20053;-92
2021/12/02 09:30:27;;;;;;;8.07;3.65;;;;;;;;;;6042609;23;20022;-92
2021/12/02 09:32:53;;;;;;;4.85;3.33;;;;;;;;;;6042370;23;20022;-94
2021/12/02 09:35:20;;;;;;;7.68;3.65;;;;;;;;;;6043600;23;20022;-93
2021/12/02 09:37:46;;;;;;;5.65;3.13;;;;;;;;;;6042538;23;20014;-91
2021/12/02 09:40:13;;;;;;;5.22;2.90;;;;;;;;;;6042584;23;20029;-94
2021/12/02 09:42:40;;;;;;;5.75;3.78;;;;;;;;;;6042940;23;20014;-93
2021/12/02 09:45:07;;;;;;;5.65;2.85;;;;;;;;;;6042501;23;20058;-90
2021/12/02 09:47:37;;;;;;;5.63;2.72;;;;;;;;;;6042272;23;20014;-90
2021/12/02 09:50:08;;;;;;;3.67;2.83;;;;;;;;;;6042376;23;20465;-90
2021/12/02 09:52:38;;;;;;;5.75;2.20;;;;;;;;;;6042413;23;20447;-91
2021/12/02 09:55:10;;;;;;;3.35;2.20;;;;;;;;;;6042017;23;20022;-93
2021/12/02 09:57:41;;;;;;;3.40;2.70;;;;;;;;;;6041906;23;20075;-91
2021/12/02 10:00:15;;;;;;;7.07;2.80;;;;;;;;;;6043394;23;20014;-96
2021/12/02 10:02:49;;;;;;;6.55;4.18;;;;;;;;;;6043815;23;20018;-93
2021/12/02 10:05:26;;;;;;;4.70;2.65;;;;;;;;;;6042832;23;20026;-92
2021/12/02 10:07:54;;;;;;;10.30;4.38;;;;;;;;;;6042230;23;20026;-95
2021/12/02 10:13:33;;;;;;;8.68;2.67;;;;;;;;;;6066165;23;20029;-91
2021/12/02 10:16:32;;;;;;;4.53;1.60;;;;;;;;;;6065646;23;20058;-94
2021/12/02 10:19:07;;;;;;;6.03;3.22;;;;;;;;;;6042576;23;20018;-94
2021/12/02 10:21:40;;;;;;;5.13;1.98;;;;;;;;;;6041899;23;20331;-92
2021/12/02 10:24:08;;;;;;;1.75;1.58;;;;;;;;;;6042603;23;20028;-93
2021/12/02 10:26:36;;;;;;;3.70;1.85;;;;;;;;;;6042707;23;20370;-92
2021/12/02 10:29:07;;;;;;;4.88;2.20;;;;;;;;;;6042755;23;20033;-93
2021/12/02 10:31:33;;;;;;;5.43;1.95;;;;;;;;;;6042617;23;20490;-91
2021/12/02 10:34:03;;;;;;;5.95;2.65;;;;;;;;;;6042874;23;20037;-94
2021/12/02 10:36:37;;;;;;;8.55;6.53;;;;;;;;;;6042104;23;20025;-92
2021/12/02 10:39:03;;;;;;;;;;;;;;;;;;6043085;23;20018;-92
2021/12/02 10:41:31;;;;;;;5.40;4.18;;;;;;;;;;6042414;23;19922;-91
2021/12/02 10:44:10;;;;;;;4.57;2.88;;;;;;;;;;6042296;23;20399;-95
2021/12/02 10:46:38;;;;;;;2.63;1.80;;;;;;;;;;6041794;23;20024;-90
2021/12/02 10:49:05;;;;;;;6.18;2.00;;;;;;;;;;6042280;23;20023;-89
2021/12/02 10:51:34;;;;;;;4.88;1.42;;;;;;;;;;6041293;23;20019;-92
2021/12/02 10:54:01;;;;;;;4.25;1.52;;;;;;;;;;6042218;23;20765;-91
2021/12/02 10:56:31;;;;;;;3.15;1.17;;;;;;;;;;6042381;23;20015;-92
2021/12/02 10:58:57;;;;;;;1.95;1.63;;;;;;;;;;6044558;23;20022;-93
2021/12/02 11:01:39;;;;;;;1.73;1.00;;;;;;;;;;6045010;23;20018;-96
2021/12/02 11:04:10;;;;;;;2.47;0.98;;;;;;;;;;6054352;23;20042;-96
2021/12/02 11:07:04;;;;;;;1.50;1.00;;;;;;;;;;6063814;23;20070;-96
2021/12/02 11:09:33;;;;;;;1.33;1.00;;;;;;;;;;6046459;23;20378;-96
2021/12/02 11:12:32;;;;;;;1.58;0.93;;;;;;;;;;6051068;23;20022;-96
2021/12/02 11:15:01;;;;;;;1.88;1.10;;;;;;;;;;5979222;23;20078;-96
2021/12/02 11:17:33;;;;;;;1.17;0.85;;;;;;;;;;6046458;23;20047;-96
2021/12/02 11:20:01;;;;;;;1.45;0.90;;;;;;;;;;6046429;23;20022;-95
2021/12/02 11:22:33;;;;;;;1.08;0.90;;;;;;;;;;6046367;23;20450;-96
2021/12/02 11:24:59;;;;;;;3.15;1.10;;;;;;;;;;6046452;23;20097;-96
2021/12/02 11:27:31;;;;;;;2.13;1.42;;;;;;;;;;6045326;23;20057;-95
2021/12/02 11:30:03;;;;;;;2.50;1.10;;;;;;;;;;6044812;23;20056;-95
2021/12/02 11:32:38;;;;;;;2.78;1.10;;;;;;;;;;6045300;23;20018;-95
2021/12/02 11:35:09;;;;;;;4.53;1.83;;;;;;;;;;6044913;23;20014;-95
2021/12/02 11:37:36;;;;;;;1.80;1.10;;;;;;;;;;6044868;23;20022;-96
2021/12/02 11:40:09;;;;;;;1.60;1.00;;;;;;;;;;6045802;23;20022;-95
2021/12/02 11:42:39;;;;;;;1.38;1.10;;;;;;;;;;6045696;23;20029;-95
2021/12/02 11:45:07;;;;;;;2.80;1.10;;;;;;;;;;6044213;23;20415;-91
2021/12/02 11:47:33;;;;;;;0.90;0.90;;;;;;;;;;6042409;23;20462;-95
2021/12/02 11:49:59;;;;;;;2.40;1.17;;;;;;;;;;6043536;23;20019;-96
2021/12/02 11:52:25;;;;;;;1.10;1.00;;;;;;;;;;6044226;23;20367;-96
2021/12/02 11:54:53;;;;;;;3.60;1.33;;;;;;;;;;6043740;23;20022;-95
2021/12/02 11:57:20;;;;;;;0.80;0.80;;;;;;;;;;6042575;23;20078;-94
2021/12/02 11:59:46;;;;;;;1.10;1.10;;;;;;;;;;6042873;23;20113;-92
2021/12/02 12:02:16;;;;;;;1.27;1.00;;;;;;;;;;6042947;23;20049;-92
2021/12/02 12:04:49;;;;;;;2.05;0.95;;;;;;;;;;6043551;23;20018;-93
2021/12/02 12:07:15;;;;;;;1.02;0.93;;;;;;;;;;6043606;23;20022;-93
2021/12/02 12:09:41;;;;;;;1.00;1.00;;;;;;;;;;6043975;23;20026;-96
2021/12/02 12:12:10;;;;;;;2.47;1.27;;;;;;;;;;6044080;23;20018;-96
2021/12/02 12:14:40;;;;;;;1.25;1.10;;;;;;;;;;6044070;23;20082;-95
2021/12/02 12:17:15;;;;;;;1.67;1.35;;;;;;;;;;6044067;23;20101;-95
2021/12/02 12:19:41;;;;;;;5.63;1.20;;;;;;;;;;6042311;23;20022;-95
2021/12/02 12:22:08;;;;;;;3.13;1.23;;;;;;;;;;6044327;23;20015;-93
2021/12/02 12:24:46;;;;;;;3.22;1.10;;;;;;;;;;6044963;23;20019;-93
2021/12/02 12:27:14;;;;;;;1.65;1.20;;;;;;;;;;6043522;23;20018;-95
2021/12/02 12:29:40;;;;;;;2.97;1.20;;;;;;;;;;6042820;23;20096;-93
2021/12/02 12:35:06;;;;;;;1.25;1.05;;;;;;;;;;6012527;23;20026;-92
2021/12/02 12:40:11;;;;;;;1.50;1.20;;;;;;;;;;6067549;23;20058;-91
2021/12/02 12:42:38;;;;;;;3.20;0.93;;;;;;;;;;6043393;23;20017;-91
2021/12/02 12:45:05;;;;;;;2.55;1.33;;;;;;;;;;6043269;23;20414;-92
2021/12/02 12:47:43;;;;;;;4.28;1.17;;;;;;;;;;6043006;23;20019;-92
2021/12/02 12:50:28;;;;;;;5.28;1.40;;;;;;;;;;6043560;23;20101;-90
2021/12/02 12:52:54;;;;;;;4.90;4.40;;;;;;;;;;6043247;23;20047;-91
2021/12/02 12:55:21;;;;;;;3.03;1.55;;;;;;;;;;6043270;23;20022;-94
2021/12/02 12:58:13;;;;;;;3.05;1.95;;;;;;;;;;6042745;23;20324;-93
2021/12/02 13:00:50;;;;;;;3.42;1.48;;;;;;;;;;6036623;23;20019;-91
2021/12/02 13:03:20;;;;;;;6.60;1.50;;;;;;;;;;6041986;23;20158;-93
2021/12/02 13:05:50;;;;;;;2.83;1.33;;;;;;;;;;6067044;23;20078;-95
2021/12/02 13:08:17;;;;;;;3.53;1.50;;;;;;;;;;6067309;23;20010;-93
2021/12/02 13:11:00;;;;;;;2.50;1.40;;;;;;;;;;6043226;23;20029;-93
2021/12/02 13:13:29;;;;;;;2.67;1.70;;;;;;;;;;6043417;23;20066;-93
2021/12/02 13:16:08;;;;;;;3.05;1.30;;;;;;;;;;6042882;23;20022;-94
2021/12/02 13:18:36;;;;;;;3.08;1.70;;;;;;;;;;6042916;23;20018;-91
2021/12/02 13:21:18;;;;;;;5.55;1.70;;;;;;;;;;6042728;23;20018;-92
2021/12/02 13:23:56;;;;;;;3.28;1.90;;;;;;;;;;6042699;23;20056;-91
2021/12/02 13:26:26;;;;;;;3.28;1.50;;;;;;;;;;6066558;23;20267;-91
2021/12/02 13:28:54;;;;;;;3.47;1.77;;;;;;;;;;6066899;23;20030;-96
2021/12/02 13:31:21;;;;;;;3.15;1.70;;;;;;;;;;6066766;23;20126;-93
2021/12/02 13:33:50;;;;;;;3.15;1.90;;;;;;;;;;6042805;23;20497;-92
2021/12/02 13:36:18;;;;;;;4.10;1.98;;;;;;;;;;6043117;23;20534;-90
2021/12/02 13:38:59;;;;;;;2.58;1.90;;;;;;;;;;6042584;23;20414;-95
2021/12/02 13:41:25;;;;;;;2.92;1.98;;;;;;;;;;6042913;23;20022;-92
2021/12/02 13:43:55;;;;;;;4.07;1.70;;;;;;;;;;6042451;23;20362;-92
2021/12/02 13:46:28;;;;;;;2.42;1.88;;;;;;;;;;6042556;23;20018;-93
2021/12/02 13:48:55;;;;;;;2.00;1.90;;;;;;;;;;6043019;23;20033;-96
2021/12/02 13:54:31;;;;;;;3.05;1.80;;;;;;;;;;5957214;24;20115;-96
2021/12/02 13:56:58;;;;;;;2.17;1.90;;;;;;;;;;5953286;24;20106;-92
2021/12/02 13:59:27;;;;;;;3.58;1.60;;;;;;;;;;5951911;24;20060;-94
2021/12/02 14:01:58;;;;;;;2.15;1.83;;;;;;;;;;5952240;24;20378;-94
2021/12/02 14:04:25;;;;;;;2.47;1.60;;;;;;;;;;5952418;24;20026;-95
2021/12/02 14:07:11;;;;;;;4.18;2.50;;;;;;;;;;5952157;24;20073;-93
2021/12/02 14:09:47;;;;;;;6.05;3.30;;;;;;;;;;5950536;24;20028;-96
2021/12/02 14:12:41;;;;;;;89.03;10.85;;;;;;;;;;6003007;24;20048;-96
2021/12/02 14:15:28;;;;;;;11.38;6.72;;;;;;;;;;5971555;24;20020;-96
2021/12/02 14:18:06;;;;;;;12.05;5.35;;;;;;;;;;5994218;24;20469;-96
2021/12/02 14:20:40;;;;;;;40.10;23.88;;;;;;;;;;5974716;24;20044;-96
2021/12/02 14:23:09;;;;;;;;;;;;;;;;;;5978257;24;20021;-96
2021/12/02 14:25:36;;;;;;;5.25;2.65;;;;;;;;;;5978676;24;19918;-96
2021/12/02 14:28:50;;;;;;;18.15;10.60;;;;;;;;;;6004443;24;20024;-96
2021/12/02 14:31:43;;;;;;;7.72;5.35;;;;;;;;;;6028966;23;20042;-96
2021/12/02 14:34:16;;;;;;;5.78;4.13;;;;;;;;;;6037927;23;20052;-96
2021/12/02 14:36:47;;;;;;;11.90;7.72;;;;;;;;;;6009427;23;20024;-91
2021/12/02 14:39:14;;;;;;;20.27;12.45;;;;;;;;;;6010393;23;20038;-93
2021/12/02 14:41:44;;;;;;;6.13;3.63;;;;;;;;;;5988120;23;20019;-96
2021/12/02 14:44:11;;;;;;;11.52;8.93;;;;;;;;;;5987654;23;20023;-93
2021/12/02 14:46:38;;;;;;;10.55;7.53;;;;;;;;;;5986673;23;20026;-92
2021/12/02 14:49:11;;;;;;;11.15;8.35;;;;;;;;;;6009730;23;20023;-93
2021/12/02 14:51:54;;;;;;;13.05;8.82;;;;;;;;;;6010895;23;20020;-93
2021/12/02 14:54:47;;;;;;;8.07;5.97;;;;;;;;;;6010297;23;20356;-92
2021/12/02 14:57:13;;;;;;;10.25;6.88;;;;;;;;;;5984694;23;20092;-93
2021/12/02 14:59:46;;;;;;;7.20;5.07;;;;;;;;;;6009572;23;20461;-91
2021/12/02 15:02:12;;;;;;;8.25;6.18;;;;;;;;;;6009839;23;20058;-93
2021/12/02 15:04:43;;;;;;;11.02;9.52;;;;;;;;;;5986952;23;20055;-90
2021/12/02 15:07:16;;;;;;;8.25;5.53;;;;;;;;;;6009811;23;20019;-92
2021/12/02 15:09:59;;;;;;;7.68;4.97;;;;;;;;;;6010080;23;20026;-92
2021/12/02 15:12:26;;;;;;;10.93;5.87;;;;;;;;;;6008941;23;20058;-92
2021/12/02 15:15:02;;;;;;;9.02;7.45;;;;;;;;;;6008979;23;20259;-91
2021/12/02 15:17:43;;;;;;;11.35;9.25;;;;;;;;;;6010264;23;20023;-94
2021/12/02 15:20:29;;;;;;;7.93;6.63;;;;;;;;;;6009268;23;20027;-94
2021/12/02 15:23:01;;;;;;;7.28;5.10;;;;;;;;;;5984853;23;20023;-94